sensor_id;sensor_type;location;lat;lon;timestamp;P1;durP1;ratioP1;P2;durP2;ratioP2
12818;SDS011;6474;53.474;9.894;2024-03-02T00:00:48;3.00;;;1.57;;
12818;SDS011;6474;53.474;9.894;2024-03-02T00:03:17;2.00;;;1.83;;
12818;SDS011;6474;53.474;9.894;2024-03-02T00:05:49;1.67;;;1.67;;
12818;SDS011;6474;53.474;9.894;2024-03-02T00:08:24;3.10;;;1.27;;
12818;SDS011;6474;53.474;9.894;2024-03-02T00:10:57;1.70;;;1.60;;
12818;SDS011;6474;53.474;9.894;2024-03-02T00:13:26;4.00;;;2.17;;
12818;SDS011;6474;53.474;9.894;2024-03-02T00:15:57;1.20;;;1.20;;
12818;SDS011;6474;53.474;9.894;2024-03-02T00:18:26;4.47;;;2.70;;
12818;SDS011;6474;53.474;9.894;2024-03-02T00:20:58;1.67;;;1.57;;
12818;SDS011;6474;53.474;9.894;2024-03-02T00:23:27;2.53;;;2.33;;
12818;SDS011;6474;53.474;9.894;2024-03-02T00:25:58;1.73;;;1.67;;
12818;SDS011;6474;53.474;9.894;2024-03-02T00:28:27;3.00;;;1.83;;
12818;SDS011;6474;53.474;9.894;2024-03-02T00:31:02;7.70;;;2.23;;
12818;SDS011;6474;53.474;9.894;2024-03-02T00:33:31;1.73;;;1.63;;
12818;SDS011;6474;53.474;9.894;2024-03-02T00:36:00;2.30;;;1.50;;
12818;SDS011;6474;53.474;9.894;2024-03-02T00:38:29;2.30;;;1.57;;
12818;SDS011;6474;53.474;9.894;2024-03-02T00:41:00;2.70;;;2.17;;
12818;SDS011;6474;53.474;9.894;2024-03-02T00:43:44;5.30;;;3.00;;
12818;SDS011;6474;53.474;9.894;2024-03-02T00:46:18;1.53;;;1.43;;
12818;SDS011;6474;53.474;9.894;2024-03-02T00:48:55;4.87;;;1.73;;
12818;SDS011;6474;53.474;9.894;2024-03-02T00:51:25;1.77;;;1.60;;
12818;SDS011;6474;53.474;9.894;2024-03-02T00:53:58;2.37;;;2.27;;
12818;SDS011;6474;53.474;9.894;2024-03-02T00:56:28;3.40;;;1.93;;
12818;SDS011;6474;53.474;9.894;2024-03-02T00:58:56;2.23;;;2.03;;
12818;SDS011;6474;53.474;9.894;2024-03-02T01:01:24;2.07;;;1.97;;
12818;SDS011;6474;53.474;9.894;2024-03-02T01:03:52;2.40;;;2.20;;
12818;SDS011;6474;53.474;9.894;2024-03-02T01:06:20;3.07;;;2.10;;
12818;SDS011;6474;53.474;9.894;2024-03-02T01:08:49;2.43;;;2.23;;
12818;SDS011;6474;53.474;9.894;2024-03-02T01:11:18;4.40;;;1.80;;
12818;SDS011;6474;53.474;9.894;2024-03-02T01:13:50;4.30;;;1.90;;
12818;SDS011;6474;53.474;9.894;2024-03-02T01:16:18;4.13;;;1.73;;
12818;SDS011;6474;53.474;9.894;2024-03-02T01:18:46;3.17;;;2.70;;
12818;SDS011;6474;53.474;9.894;2024-03-02T01:21:14;2.50;;;2.30;;
12818;SDS011;6474;53.474;9.894;2024-03-02T01:23:42;2.97;;;2.43;;
12818;SDS011;6474;53.474;9.894;2024-03-02T01:26:10;2.87;;;2.60;;
12818;SDS011;6474;53.474;9.894;2024-03-02T01:28:38;2.23;;;2.00;;
12818;SDS011;6474;53.474;9.894;2024-03-02T01:31:07;2.90;;;2.20;;
12818;SDS011;6474;53.474;9.894;2024-03-02T01:33:35;5.03;;;3.50;;
12818;SDS011;6474;53.474;9.894;2024-03-02T01:36:03;2.87;;;2.07;;
12818;SDS011;6474;53.474;9.894;2024-03-02T01:38:31;3.10;;;1.97;;
12818;SDS011;6474;53.474;9.894;2024-03-02T01:41:00;2.73;;;2.53;;
12818;SDS011;6474;53.474;9.894;2024-03-02T01:43:28;3.90;;;2.40;;
12818;SDS011;6474;53.474;9.894;2024-03-02T01:45:56;1.57;;;1.47;;
12818;SDS011;6474;53.474;9.894;2024-03-02T01:48:26;2.43;;;1.57;;
12818;SDS011;6474;53.474;9.894;2024-03-02T01:50:54;2.43;;;2.23;;
12818;SDS011;6474;53.474;9.894;2024-03-02T01:53:22;2.37;;;2.27;;
12818;SDS011;6474;53.474;9.894;2024-03-02T01:55:50;3.67;;;2.67;;
12818;SDS011;6474;53.474;9.894;2024-03-02T01:58:18;4.47;;;2.33;;
12818;SDS011;6474;53.474;9.894;2024-03-02T02:00:45;3.33;;;2.87;;
12818;SDS011;6474;53.474;9.894;2024-03-02T02:03:14;3.33;;;3.03;;
12818;SDS011;6474;53.474;9.894;2024-03-02T02:05:43;2.57;;;2.07;;
12818;SDS011;6474;53.474;9.894;2024-03-02T02:08:12;4.83;;;2.53;;
12818;SDS011;6474;53.474;9.894;2024-03-02T02:10:39;2.33;;;2.23;;
12818;SDS011;6474;53.474;9.894;2024-03-02T02:13:08;3.83;;;3.17;;
12818;SDS011;6474;53.474;9.894;2024-03-02T02:15:36;5.27;;;2.00;;
12818;SDS011;6474;53.474;9.894;2024-03-02T02:18:04;7.43;;;2.30;;
12818;SDS011;6474;53.474;9.894;2024-03-02T02:20:32;1.77;;;1.67;;
12818;SDS011;6474;53.474;9.894;2024-03-02T02:23:02;2.80;;;2.53;;
12818;SDS011;6474;53.474;9.894;2024-03-02T02:25:31;3.80;;;2.20;;
12818;SDS011;6474;53.474;9.894;2024-03-02T02:28:00;2.30;;;1.90;;
12818;SDS011;6474;53.474;9.894;2024-03-02T02:30:29;2.13;;;2.03;;
12818;SDS011;6474;53.474;9.894;2024-03-02T02:32:58;10.10;;;2.73;;
12818;SDS011;6474;53.474;9.894;2024-03-02T02:35:26;5.33;;;3.00;;
12818;SDS011;6474;53.474;9.894;2024-03-02T02:37:55;4.63;;;3.10;;
12818;SDS011;6474;53.474;9.894;2024-03-02T02:40:26;4.13;;;2.53;;
12818;SDS011;6474;53.474;9.894;2024-03-02T02:42:55;7.17;;;3.57;;
12818;SDS011;6474;53.474;9.894;2024-03-02T02:45:23;2.90;;;1.87;;
12818;SDS011;6474;53.474;9.894;2024-03-02T02:47:50;2.23;;;2.13;;
12818;SDS011;6474;53.474;9.894;2024-03-02T02:50:18;2.17;;;1.93;;
12818;SDS011;6474;53.474;9.894;2024-03-02T02:52:46;3.00;;;2.80;;
12818;SDS011;6474;53.474;9.894;2024-03-02T02:55:14;6.73;;;2.97;;
12818;SDS011;6474;53.474;9.894;2024-03-02T02:57:43;7.17;;;3.20;;
12818;SDS011;6474;53.474;9.894;2024-03-02T03:00:13;2.67;;;1.70;;
12818;SDS011;6474;53.474;9.894;2024-03-02T03:02:45;4.27;;;2.97;;
12818;SDS011;6474;53.474;9.894;2024-03-02T03:05:16;8.13;;;2.53;;
12818;SDS011;6474;53.474;9.894;2024-03-02T03:07:45;2.70;;;2.03;;
12818;SDS011;6474;53.474;9.894;2024-03-02T03:10:16;3.20;;;2.97;;
12818;SDS011;6474;53.474;9.894;2024-03-02T03:12:45;3.77;;;2.93;;
12818;SDS011;6474;53.474;9.894;2024-03-02T03:15:13;7.00;;;1.87;;
12818;SDS011;6474;53.474;9.894;2024-03-02T03:17:42;6.57;;;2.83;;
12818;SDS011;6474;53.474;9.894;2024-03-02T03:20:11;3.27;;;2.90;;
12818;SDS011;6474;53.474;9.894;2024-03-02T03:22:40;2.90;;;2.70;;
12818;SDS011;6474;53.474;9.894;2024-03-02T03:25:08;6.63;;;2.33;;
12818;SDS011;6474;53.474;9.894;2024-03-02T03:27:36;3.10;;;2.10;;
12818;SDS011;6474;53.474;9.894;2024-03-02T03:30:06;4.10;;;2.50;;
12818;SDS011;6474;53.474;9.894;2024-03-02T03:32:34;1.90;;;1.80;;
12818;SDS011;6474;53.474;9.894;2024-03-02T03:35:03;3.73;;;2.77;;
12818;SDS011;6474;53.474;9.894;2024-03-02T03:37:31;7.73;;;3.60;;
12818;SDS011;6474;53.474;9.894;2024-03-02T03:40:01;1.90;;;1.70;;
12818;SDS011;6474;53.474;9.894;2024-03-02T03:42:33;1.60;;;1.60;;
12818;SDS011;6474;53.474;9.894;2024-03-02T03:45:01;3.07;;;2.43;;
12818;SDS011;6474;53.474;9.894;2024-03-02T03:47:30;3.47;;;3.17;;
12818;SDS011;6474;53.474;9.894;2024-03-02T03:49:58;2.60;;;2.50;;
12818;SDS011;6474;53.474;9.894;2024-03-02T03:52:26;2.73;;;2.47;;
12818;SDS011;6474;53.474;9.894;2024-03-02T03:54:54;1.57;;;1.53;;
12818;SDS011;6474;53.474;9.894;2024-03-02T03:57:22;3.77;;;2.90;;
12818;SDS011;6474;53.474;9.894;2024-03-02T03:59:50;3.27;;;3.00;;
12818;SDS011;6474;53.474;9.894;2024-03-02T04:02:17;5.77;;;2.80;;
12818;SDS011;6474;53.474;9.894;2024-03-02T04:04:47;6.93;;;2.67;;
12818;SDS011;6474;53.474;9.894;2024-03-02T04:07:15;3.57;;;2.93;;
12818;SDS011;6474;53.474;9.894;2024-03-02T04:09:42;4.20;;;2.13;;
12818;SDS011;6474;53.474;9.894;2024-03-02T04:12:10;3.47;;;3.17;;
12818;SDS011;6474;53.474;9.894;2024-03-02T04:14:39;3.07;;;2.27;;
12818;SDS011;6474;53.474;9.894;2024-03-02T04:17:09;2.80;;;1.77;;
12818;SDS011;6474;53.474;9.894;2024-03-02T04:19:36;9.97;;;3.27;;
12818;SDS011;6474;53.474;9.894;2024-03-02T04:22:05;3.23;;;2.70;;
12818;SDS011;6474;53.474;9.894;2024-03-02T04:24:46;1.70;;;1.60;;
12818;SDS011;6474;53.474;9.894;2024-03-02T04:27:14;6.33;;;2.60;;
12818;SDS011;6474;53.474;9.894;2024-03-02T04:29:42;7.60;;;3.30;;
12818;SDS011;6474;53.474;9.894;2024-03-02T04:32:10;5.30;;;3.27;;
12818;SDS011;6474;53.474;9.894;2024-03-02T04:34:38;2.83;;;2.63;;
12818;SDS011;6474;53.474;9.894;2024-03-02T04:37:07;2.80;;;2.10;;
12818;SDS011;6474;53.474;9.894;2024-03-02T04:39:35;3.07;;;2.40;;
12818;SDS011;6474;53.474;9.894;2024-03-02T04:42:02;3.40;;;3.10;;
12818;SDS011;6474;53.474;9.894;2024-03-02T04:44:30;4.83;;;3.23;;
12818;SDS011;6474;53.474;9.894;2024-03-02T04:46:58;2.57;;;2.37;;
12818;SDS011;6474;53.474;9.894;2024-03-02T04:49:26;2.47;;;2.27;;
12818;SDS011;6474;53.474;9.894;2024-03-02T04:51:54;2.97;;;2.63;;
12818;SDS011;6474;53.474;9.894;2024-03-02T04:54:24;3.23;;;1.97;;
12818;SDS011;6474;53.474;9.894;2024-03-02T04:56:52;2.63;;;2.53;;
12818;SDS011;6474;53.474;9.894;2024-03-02T04:59:20;4.67;;;2.80;;
12818;SDS011;6474;53.474;9.894;2024-03-02T05:01:48;2.93;;;1.97;;
12818;SDS011;6474;53.474;9.894;2024-03-02T05:04:16;6.10;;;3.93;;
12818;SDS011;6474;53.474;9.894;2024-03-02T05:06:44;11.77;;;3.53;;
12818;SDS011;6474;53.474;9.894;2024-03-02T05:09:18;3.13;;;2.60;;
12818;SDS011;6474;53.474;9.894;2024-03-02T05:11:47;2.60;;;2.40;;
12818;SDS011;6474;53.474;9.894;2024-03-02T05:14:49;2.10;;;1.90;;
12818;SDS011;6474;53.474;9.894;2024-03-02T05:17:17;1.70;;;1.60;;
12818;SDS011;6474;53.474;9.894;2024-03-02T05:19:44;2.23;;;2.13;;
12818;SDS011;6474;53.474;9.894;2024-03-02T05:22:12;3.67;;;2.50;;
12818;SDS011;6474;53.474;9.894;2024-03-02T05:24:40;2.20;;;2.00;;
12818;SDS011;6474;53.474;9.894;2024-03-02T05:27:09;3.53;;;1.77;;
12818;SDS011;6474;53.474;9.894;2024-03-02T05:29:37;2.53;;;2.33;;
12818;SDS011;6474;53.474;9.894;2024-03-02T05:32:05;2.83;;;2.63;;
12818;SDS011;6474;53.474;9.894;2024-03-02T05:34:34;2.67;;;1.97;;
12818;SDS011;6474;53.474;9.894;2024-03-02T05:37:02;1.53;;;1.53;;
12818;SDS011;6474;53.474;9.894;2024-03-02T05:39:30;3.40;;;1.97;;
12818;SDS011;6474;53.474;9.894;2024-03-02T05:41:58;4.10;;;2.93;;
12818;SDS011;6474;53.474;9.894;2024-03-02T05:44:27;4.03;;;2.57;;
12818;SDS011;6474;53.474;9.894;2024-03-02T05:46:55;4.93;;;2.60;;
12818;SDS011;6474;53.474;9.894;2024-03-02T05:49:23;2.67;;;2.47;;
12818;SDS011;6474;53.474;9.894;2024-03-02T05:51:51;2.27;;;2.17;;
12818;SDS011;6474;53.474;9.894;2024-03-02T05:54:19;7.40;;;3.53;;
12818;SDS011;6474;53.474;9.894;2024-03-02T05:56:47;5.10;;;2.40;;
12818;SDS011;6474;53.474;9.894;2024-03-02T05:59:15;1.70;;;1.60;;
12818;SDS011;6474;53.474;9.894;2024-03-02T06:01:45;2.13;;;2.00;;
12818;SDS011;6474;53.474;9.894;2024-03-02T06:04:14;3.13;;;2.03;;
12818;SDS011;6474;53.474;9.894;2024-03-02T06:06:42;2.40;;;1.97;;
12818;SDS011;6474;53.474;9.894;2024-03-02T06:09:10;2.73;;;2.53;;
12818;SDS011;6474;53.474;9.894;2024-03-02T06:11:39;2.20;;;2.10;;
12818;SDS011;6474;53.474;9.894;2024-03-02T06:14:08;3.03;;;2.63;;
12818;SDS011;6474;53.474;9.894;2024-03-02T06:16:35;2.43;;;2.23;;
12818;SDS011;6474;53.474;9.894;2024-03-02T06:19:04;2.07;;;1.97;;
12818;SDS011;6474;53.474;9.894;2024-03-02T06:21:33;1.77;;;1.67;;
12818;SDS011;6474;53.474;9.894;2024-03-02T06:24:01;2.83;;;2.07;;
12818;SDS011;6474;53.474;9.894;2024-03-02T06:26:29;3.27;;;2.27;;
12818;SDS011;6474;53.474;9.894;2024-03-02T06:28:58;2.27;;;2.20;;
12818;SDS011;6474;53.474;9.894;2024-03-02T06:31:25;2.33;;;2.10;;
12818;SDS011;6474;53.474;9.894;2024-03-02T06:33:53;3.30;;;2.37;;
12818;SDS011;6474;53.474;9.894;2024-03-02T06:36:23;2.57;;;1.80;;
12818;SDS011;6474;53.474;9.894;2024-03-02T06:38:50;3.63;;;2.70;;
12818;SDS011;6474;53.474;9.894;2024-03-02T06:41:18;3.43;;;2.67;;
12818;SDS011;6474;53.474;9.894;2024-03-02T06:43:46;2.77;;;1.73;;
12818;SDS011;6474;53.474;9.894;2024-03-02T06:46:14;6.47;;;2.20;;
12818;SDS011;6474;53.474;9.894;2024-03-02T06:48:42;4.30;;;3.67;;
12818;SDS011;6474;53.474;9.894;2024-03-02T06:51:10;2.03;;;2.00;;
12818;SDS011;6474;53.474;9.894;2024-03-02T06:53:39;2.60;;;2.27;;
12818;SDS011;6474;53.474;9.894;2024-03-02T06:56:07;2.27;;;2.10;;
12818;SDS011;6474;53.474;9.894;2024-03-02T06:58:35;1.57;;;1.37;;
12818;SDS011;6474;53.474;9.894;2024-03-02T07:01:03;2.80;;;2.00;;
12818;SDS011;6474;53.474;9.894;2024-03-02T07:03:31;3.77;;;3.13;;
12818;SDS011;6474;53.474;9.894;2024-03-02T07:05:59;4.43;;;2.20;;
12818;SDS011;6474;53.474;9.894;2024-03-02T07:08:27;2.37;;;1.70;;
12818;SDS011;6474;53.474;9.894;2024-03-02T07:10:56;1.57;;;1.43;;
12818;SDS011;6474;53.474;9.894;2024-03-02T07:13:24;1.73;;;1.63;;
12818;SDS011;6474;53.474;9.894;2024-03-02T07:15:52;4.10;;;2.57;;
12818;SDS011;6474;53.474;9.894;2024-03-02T07:18:48;2.47;;;2.23;;
12818;SDS011;6474;53.474;9.894;2024-03-02T07:21:18;5.90;;;3.07;;
12818;SDS011;6474;53.474;9.894;2024-03-02T07:23:48;2.43;;;1.83;;
12818;SDS011;6474;53.474;9.894;2024-03-02T07:26:18;3.60;;;2.60;;
12818;SDS011;6474;53.474;9.894;2024-03-02T07:28:49;3.07;;;1.77;;
12818;SDS011;6474;53.474;9.894;2024-03-02T07:31:17;1.67;;;1.67;;
12818;SDS011;6474;53.474;9.894;2024-03-02T07:33:45;2.10;;;1.77;;
12818;SDS011;6474;53.474;9.894;2024-03-02T07:36:13;2.63;;;2.33;;
12818;SDS011;6474;53.474;9.894;2024-03-02T07:38:42;2.87;;;2.63;;
12818;SDS011;6474;53.474;9.894;2024-03-02T07:41:11;1.87;;;1.80;;
12818;SDS011;6474;53.474;9.894;2024-03-02T07:43:40;4.27;;;2.43;;
12818;SDS011;6474;53.474;9.894;2024-03-02T07:46:08;2.07;;;1.97;;
12818;SDS011;6474;53.474;9.894;2024-03-02T07:48:36;2.37;;;1.73;;
12818;SDS011;6474;53.474;9.894;2024-03-02T07:51:04;1.53;;;1.40;;
12818;SDS011;6474;53.474;9.894;2024-03-02T07:53:32;1.57;;;1.57;;
12818;SDS011;6474;53.474;9.894;2024-03-02T07:55:59;1.53;;;1.53;;
12818;SDS011;6474;53.474;9.894;2024-03-02T07:58:29;1.57;;;1.47;;
12818;SDS011;6474;53.474;9.894;2024-03-02T08:00:59;2.53;;;1.33;;
12818;SDS011;6474;53.474;9.894;2024-03-02T08:03:28;3.13;;;2.00;;
12818;SDS011;6474;53.474;9.894;2024-03-02T08:05:55;1.73;;;1.50;;
12818;SDS011;6474;53.474;9.894;2024-03-02T08:08:24;1.87;;;1.40;;
12818;SDS011;6474;53.474;9.894;2024-03-02T08:10:52;3.67;;;2.23;;
12818;SDS011;6474;53.474;9.894;2024-03-02T08:13:20;3.63;;;1.60;;
12818;SDS011;6474;53.474;9.894;2024-03-02T08:15:47;1.60;;;1.53;;
12818;SDS011;6474;53.474;9.894;2024-03-02T08:18:17;2.27;;;2.03;;
12818;SDS011;6474;53.474;9.894;2024-03-02T08:20:45;2.20;;;2.00;;
12818;SDS011;6474;53.474;9.894;2024-03-02T08:23:13;1.60;;;1.50;;
12818;SDS011;6474;53.474;9.894;2024-03-02T08:25:41;2.00;;;1.87;;
12818;SDS011;6474;53.474;9.894;2024-03-02T08:28:09;2.50;;;2.40;;
12818;SDS011;6474;53.474;9.894;2024-03-02T08:30:38;2.90;;;2.27;;
12818;SDS011;6474;53.474;9.894;2024-03-02T08:33:06;2.63;;;2.43;;
12818;SDS011;6474;53.474;9.894;2024-03-02T08:35:35;1.80;;;1.70;;
12818;SDS011;6474;53.474;9.894;2024-03-02T08:38:03;2.40;;;1.93;;
12818;SDS011;6474;53.474;9.894;2024-03-02T08:40:31;1.77;;;1.73;;
12818;SDS011;6474;53.474;9.894;2024-03-02T08:42:59;2.07;;;1.80;;
12818;SDS011;6474;53.474;9.894;2024-03-02T08:45:27;6.70;;;2.13;;
12818;SDS011;6474;53.474;9.894;2024-03-02T08:47:55;4.43;;;3.70;;
12818;SDS011;6474;53.474;9.894;2024-03-02T08:50:23;1.60;;;1.50;;
12818;SDS011;6474;53.474;9.894;2024-03-02T08:52:52;4.03;;;2.07;;
12818;SDS011;6474;53.474;9.894;2024-03-02T08:55:20;2.07;;;1.97;;
12818;SDS011;6474;53.474;9.894;2024-03-02T08:57:48;2.33;;;2.17;;
12818;SDS011;6474;53.474;9.894;2024-03-02T09:00:17;4.53;;;2.03;;
12818;SDS011;6474;53.474;9.894;2024-03-02T09:02:45;2.77;;;2.53;;
12818;SDS011;6474;53.474;9.894;2024-03-02T09:05:13;2.80;;;2.37;;
12818;SDS011;6474;53.474;9.894;2024-03-02T09:07:41;3.03;;;2.40;;
12818;SDS011;6474;53.474;9.894;2024-03-02T09:10:11;2.43;;;2.03;;
12818;SDS011;6474;53.474;9.894;2024-03-02T09:12:38;3.20;;;2.37;;
12818;SDS011;6474;53.474;9.894;2024-03-02T09:15:07;2.17;;;2.07;;
12818;SDS011;6474;53.474;9.894;2024-03-02T09:17:35;1.67;;;1.57;;
12818;SDS011;6474;53.474;9.894;2024-03-02T09:20:03;2.33;;;2.10;;
12818;SDS011;6474;53.474;9.894;2024-03-02T09:22:32;2.60;;;2.40;;
12818;SDS011;6474;53.474;9.894;2024-03-02T09:24:59;2.43;;;2.23;;
12818;SDS011;6474;53.474;9.894;2024-03-02T09:27:29;2.73;;;2.53;;
12818;SDS011;6474;53.474;9.894;2024-03-02T09:29:57;2.00;;;1.57;;
12818;SDS011;6474;53.474;9.894;2024-03-02T09:32:24;1.67;;;1.67;;
12818;SDS011;6474;53.474;9.894;2024-03-02T09:34:52;1.67;;;1.57;;
12818;SDS011;6474;53.474;9.894;2024-03-02T09:37:22;2.58;;;2.00;;
12818;SDS011;6474;53.474;9.894;2024-03-02T09:39:49;2.37;;;2.27;;
12818;SDS011;6474;53.474;9.894;2024-03-02T09:42:18;5.40;;;2.57;;
12818;SDS011;6474;53.474;9.894;2024-03-02T09:44:51;1.60;;;1.50;;
12818;SDS011;6474;53.474;9.894;2024-03-02T09:47:19;1.80;;;1.70;;
12818;SDS011;6474;53.474;9.894;2024-03-02T09:49:47;2.73;;;1.77;;
12818;SDS011;6474;53.474;9.894;2024-03-02T09:52:15;1.63;;;1.60;;
12818;SDS011;6474;53.474;9.894;2024-03-02T09:54:43;1.33;;;1.27;;
12818;SDS011;6474;53.474;9.894;2024-03-02T09:57:11;1.57;;;1.47;;
12818;SDS011;6474;53.474;9.894;2024-03-02T09:59:39;1.33;;;1.13;;
12818;SDS011;6474;53.474;9.894;2024-03-02T10:02:08;3.37;;;2.27;;
12818;SDS011;6474;53.474;9.894;2024-03-02T10:04:36;2.00;;;1.70;;
12818;SDS011;6474;53.474;9.894;2024-03-02T10:07:11;1.17;;;1.17;;
12818;SDS011;6474;53.474;9.894;2024-03-02T10:09:40;3.40;;;2.23;;
12818;SDS011;6474;53.474;9.894;2024-03-02T10:12:09;1.90;;;1.80;;
12818;SDS011;6474;53.474;9.894;2024-03-02T10:14:38;1.53;;;1.50;;
12818;SDS011;6474;53.474;9.894;2024-03-02T10:17:08;1.93;;;1.83;;
12818;SDS011;6474;53.474;9.894;2024-03-02T10:19:37;1.80;;;1.70;;
12818;SDS011;6474;53.474;9.894;2024-03-02T10:22:06;1.53;;;1.43;;
12818;SDS011;6474;53.474;9.894;2024-03-02T10:24:35;2.53;;;2.13;;
12818;SDS011;6474;53.474;9.894;2024-03-02T10:27:08;4.63;;;1.27;;
12818;SDS011;6474;53.474;9.894;2024-03-02T10:29:37;1.30;;;1.30;;
12818;SDS011;6474;53.474;9.894;2024-03-02T10:32:09;1.70;;;1.70;;
12818;SDS011;6474;53.474;9.894;2024-03-02T10:34:39;1.63;;;1.60;;
12818;SDS011;6474;53.474;9.894;2024-03-02T10:37:08;1.10;;;1.10;;
12818;SDS011;6474;53.474;9.894;2024-03-02T10:39:37;1.63;;;1.53;;
12818;SDS011;6474;53.474;9.894;2024-03-02T10:42:07;1.57;;;1.47;;
12818;SDS011;6474;53.474;9.894;2024-03-02T10:44:35;1.63;;;1.57;;
12818;SDS011;6474;53.474;9.894;2024-03-02T10:47:04;1.53;;;1.40;;
12818;SDS011;6474;53.474;9.894;2024-03-02T10:49:34;2.00;;;1.33;;
12818;SDS011;6474;53.474;9.894;2024-03-02T10:52:01;1.17;;;1.07;;
12818;SDS011;6474;53.474;9.894;2024-03-02T10:54:30;1.40;;;1.30;;
12818;SDS011;6474;53.474;9.894;2024-03-02T10:57:03;2.10;;;1.40;;
12818;SDS011;6474;53.474;9.894;2024-03-02T10:59:36;0.87;;;0.87;;
12818;SDS011;6474;53.474;9.894;2024-03-02T11:02:10;2.37;;;1.00;;
12818;SDS011;6474;53.474;9.894;2024-03-02T11:04:41;1.03;;;0.87;;
12818;SDS011;6474;53.474;9.894;2024-03-02T11:07:09;1.70;;;1.40;;
12818;SDS011;6474;53.474;9.894;2024-03-02T11:09:38;2.30;;;1.43;;
12818;SDS011;6474;53.474;9.894;2024-03-02T11:12:09;1.60;;;1.53;;
12818;SDS011;6474;53.474;9.894;2024-03-02T11:14:40;2.30;;;2.20;;
12818;SDS011;6474;53.474;9.894;2024-03-02T11:17:10;1.07;;;1.07;;
12818;SDS011;6474;53.474;9.894;2024-03-02T11:19:43;1.97;;;1.87;;
12818;SDS011;6474;53.474;9.894;2024-03-02T11:22:13;1.40;;;1.30;;
12818;SDS011;6474;53.474;9.894;2024-03-02T11:24:47;1.83;;;1.83;;
12818;SDS011;6474;53.474;9.894;2024-03-02T11:27:20;1.80;;;1.53;;
12818;SDS011;6474;53.474;9.894;2024-03-02T11:33:23;2.77;;;1.83;;
12818;SDS011;6474;53.474;9.894;2024-03-02T11:35:55;1.80;;;1.70;;
12818;SDS011;6474;53.474;9.894;2024-03-02T11:38:31;1.83;;;1.73;;
12818;SDS011;6474;53.474;9.894;2024-03-02T11:41:00;1.53;;;1.43;;
12818;SDS011;6474;53.474;9.894;2024-03-02T11:43:29;4.90;;;1.80;;
12818;SDS011;6474;53.474;9.894;2024-03-02T11:45:57;1.37;;;1.23;;
12818;SDS011;6474;53.474;9.894;2024-03-02T11:48:26;2.13;;;1.00;;
12818;SDS011;6474;53.474;9.894;2024-03-02T11:50:57;1.70;;;1.70;;
12818;SDS011;6474;53.474;9.894;2024-03-02T11:53:26;1.13;;;1.13;;
12818;SDS011;6474;53.474;9.894;2024-03-02T11:55:58;0.93;;;0.93;;
12818;SDS011;6474;53.474;9.894;2024-03-02T11:58:27;1.57;;;1.47;;
12818;SDS011;6474;53.474;9.894;2024-03-02T12:00:57;1.20;;;1.10;;
12818;SDS011;6474;53.474;9.894;2024-03-02T12:03:25;0.77;;;0.77;;
12818;SDS011;6474;53.474;9.894;2024-03-02T12:05:55;5.63;;;2.13;;
12818;SDS011;6474;53.474;9.894;2024-03-02T12:08:23;1.43;;;1.33;;
12818;SDS011;6474;53.474;9.894;2024-03-02T12:10:58;1.30;;;1.00;;
12818;SDS011;6474;53.474;9.894;2024-03-02T12:13:27;0.67;;;0.67;;
12818;SDS011;6474;53.474;9.894;2024-03-02T12:15:55;1.43;;;1.27;;
12818;SDS011;6474;53.474;9.894;2024-03-02T12:18:24;1.10;;;1.10;;
12818;SDS011;6474;53.474;9.894;2024-03-02T12:20:52;0.90;;;0.90;;
12818;SDS011;6474;53.474;9.894;2024-03-02T12:23:25;1.37;;;1.00;;
12818;SDS011;6474;53.474;9.894;2024-03-02T12:25:53;1.33;;;1.23;;
12818;SDS011;6474;53.474;9.894;2024-03-02T12:28:21;2.37;;;1.30;;
12818;SDS011;6474;53.474;9.894;2024-03-02T12:30:49;2.57;;;1.50;;
12818;SDS011;6474;53.474;9.894;2024-03-02T12:33:17;1.17;;;1.07;;
12818;SDS011;6474;53.474;9.894;2024-03-02T12:35:45;1.60;;;1.30;;
12818;SDS011;6474;53.474;9.894;2024-03-02T12:38:13;0.87;;;0.80;;
12818;SDS011;6474;53.474;9.894;2024-03-02T12:40:43;1.00;;;1.00;;
12818;SDS011;6474;53.474;9.894;2024-03-02T12:43:11;1.30;;;1.23;;
12818;SDS011;6474;53.474;9.894;2024-03-02T12:45:39;0.80;;;0.80;;
12818;SDS011;6474;53.474;9.894;2024-03-02T12:48:07;1.60;;;0.90;;
12818;SDS011;6474;53.474;9.894;2024-03-02T12:50:37;1.20;;;1.20;;
12818;SDS011;6474;53.474;9.894;2024-03-02T12:53:05;1.53;;;0.90;;
12818;SDS011;6474;53.474;9.894;2024-03-02T12:55:34;1.50;;;0.83;;
12818;SDS011;6474;53.474;9.894;2024-03-02T12:58:04;0.80;;;0.80;;
12818;SDS011;6474;53.474;9.894;2024-03-02T13:00:31;2.13;;;0.87;;
12818;SDS011;6474;53.474;9.894;2024-03-02T13:03:01;1.73;;;1.63;;
12818;SDS011;6474;53.474;9.894;2024-03-02T13:05:30;1.30;;;1.20;;
12818;SDS011;6474;53.474;9.894;2024-03-02T13:07:58;0.97;;;0.97;;
12818;SDS011;6474;53.474;9.894;2024-03-02T13:10:27;1.40;;;1.37;;
12818;SDS011;6474;53.474;9.894;2024-03-02T13:12:55;2.53;;;1.53;;
12818;SDS011;6474;53.474;9.894;2024-03-02T13:15:25;1.20;;;1.20;;
12818;SDS011;6474;53.474;9.894;2024-03-02T13:17:54;1.50;;;1.50;;
12818;SDS011;6474;53.474;9.894;2024-03-02T13:20:29;1.03;;;1.03;;
12818;SDS011;6474;53.474;9.894;2024-03-02T13:22:57;1.10;;;0.97;;
12818;SDS011;6474;53.474;9.894;2024-03-02T13:25:25;1.23;;;1.23;;
12818;SDS011;6474;53.474;9.894;2024-03-02T13:27:55;1.30;;;1.03;;
12818;SDS011;6474;53.474;9.894;2024-03-02T13:30:25;3.80;;;1.43;;
12818;SDS011;6474;53.474;9.894;2024-03-02T13:32:54;1.20;;;1.20;;
12818;SDS011;6474;53.474;9.894;2024-03-02T13:35:22;0.80;;;0.80;;
12818;SDS011;6474;53.474;9.894;2024-03-02T13:37:50;0.97;;;0.97;;
12818;SDS011;6474;53.474;9.894;2024-03-02T13:40:18;1.43;;;1.43;;
12818;SDS011;6474;53.474;9.894;2024-03-02T13:42:46;0.90;;;0.90;;
12818;SDS011;6474;53.474;9.894;2024-03-02T13:45:14;1.30;;;1.20;;
12818;SDS011;6474;53.474;9.894;2024-03-02T13:47:44;1.27;;;1.20;;
12818;SDS011;6474;53.474;9.894;2024-03-02T13:50:12;1.53;;;1.37;;
12818;SDS011;6474;53.474;9.894;2024-03-02T13:52:40;1.10;;;0.97;;
12818;SDS011;6474;53.474;9.894;2024-03-02T13:55:08;0.90;;;0.90;;
12818;SDS011;6474;53.474;9.894;2024-03-02T13:57:36;1.20;;;1.20;;
12818;SDS011;6474;53.474;9.894;2024-03-02T14:00:05;1.33;;;1.00;;
12818;SDS011;6474;53.474;9.894;2024-03-02T14:02:36;1.00;;;1.00;;
12818;SDS011;6474;53.474;9.894;2024-03-02T14:05:06;2.17;;;0.97;;
12818;SDS011;6474;53.474;9.894;2024-03-02T14:07:37;0.80;;;0.80;;
12818;SDS011;6474;53.474;9.894;2024-03-02T14:10:07;0.83;;;0.83;;
12818;SDS011;6474;53.474;9.894;2024-03-02T14:12:36;1.60;;;1.50;;
12818;SDS011;6474;53.474;9.894;2024-03-02T14:15:10;1.73;;;1.63;;
12818;SDS011;6474;53.474;9.894;2024-03-02T14:17:38;0.97;;;0.97;;
12818;SDS011;6474;53.474;9.894;2024-03-02T14:20:08;1.07;;;1.00;;
12818;SDS011;6474;53.474;9.894;2024-03-02T14:22:38;5.30;;;0.60;;
12818;SDS011;6474;53.474;9.894;2024-03-02T14:25:07;2.47;;;0.93;;
12818;SDS011;6474;53.474;9.894;2024-03-02T14:27:35;1.53;;;1.43;;
12818;SDS011;6474;53.474;9.894;2024-03-02T14:30:23;2.17;;;2.07;;
12818;SDS011;6474;53.474;9.894;2024-03-02T14:32:51;0.97;;;0.97;;
12818;SDS011;6474;53.474;9.894;2024-03-02T14:35:21;0.97;;;0.97;;
12818;SDS011;6474;53.474;9.894;2024-03-02T14:37:49;2.60;;;1.10;;
12818;SDS011;6474;53.474;9.894;2024-03-02T14:40:17;0.70;;;0.70;;
12818;SDS011;6474;53.474;9.894;2024-03-02T14:42:46;0.93;;;0.93;;
12818;SDS011;6474;53.474;9.894;2024-03-02T14:45:14;1.23;;;1.23;;
12818;SDS011;6474;53.474;9.894;2024-03-02T14:47:42;1.03;;;0.80;;
12818;SDS011;6474;53.474;9.894;2024-03-02T14:50:10;0.90;;;0.90;;
12818;SDS011;6474;53.474;9.894;2024-03-02T14:52:40;1.00;;;1.00;;
12818;SDS011;6474;53.474;9.894;2024-03-02T14:55:11;3.60;;;1.00;;
12818;SDS011;6474;53.474;9.894;2024-03-02T14:57:39;5.30;;;1.47;;
12818;SDS011;6474;53.474;9.894;2024-03-02T15:00:07;1.60;;;1.50;;
12818;SDS011;6474;53.474;9.894;2024-03-02T15:02:38;1.03;;;0.93;;
12818;SDS011;6474;53.474;9.894;2024-03-02T15:05:06;1.53;;;1.43;;
12818;SDS011;6474;53.474;9.894;2024-03-02T15:07:34;1.37;;;1.00;;
12818;SDS011;6474;53.474;9.894;2024-03-02T15:10:04;1.50;;;1.40;;
12818;SDS011;6474;53.474;9.894;2024-03-02T15:12:33;0.77;;;0.77;;
12818;SDS011;6474;53.474;9.894;2024-03-02T15:15:01;1.37;;;1.13;;